This is the latest recevied weather packets stored in our database for station/object EW2310. If no packets are shown the sender has not sent any weather packets the latest 10 day(s).
| Time | Temp. | Humidity | Pressure | Rain* | Wind** | Luminosity | Snow |
|---|---|---|---|---|---|---|---|
| 1777669843 | 14.44° C | 52% | 1021.5 hPa | 0 mm | - | 0 W/m² | - |
| 1777669242 | 14.44° C | 56% | 1021.3 hPa | 0 mm | - | 0 W/m² | - |
| 1777666542 | 15° C | 65% | 1020.8 hPa | 0 mm | - | 0 W/m² | - |
| 1777666243 | 15° C | 65% | 1020.8 hPa | 0 mm | - | 0 W/m² | - |
| 1777665945 | 15° C | 67% | 1020.6 hPa | 0 mm | - | 0 W/m² | - |
| 1777663843 | 15.56° C | 69% | 1020 hPa | 0 mm | - | 0 W/m² | - |
| 1777663242 | 15.56° C | 68% | 1020 hPa | 0 mm | - | 0 W/m² | - |
| 1777661442 | 16.11° C | 68% | 1019.5 hPa | 0 mm | - | 0 W/m² | - |
| 1777658742 | 16.67° C | 67% | 1019 hPa | 0 mm | - | 5 W/m² | - |
| 1777657842 | 17.22° C | 64% | 1018.5 hPa | 0 mm | - | 14 W/m² | - |
| 1777656943 | 17.22° C | 64% | 1018.4 hPa | 0 mm | - | 21 W/m² | - |
| 1777652745 | 19.44° C | 53% | 1017.7 hPa | 0 mm | - | 246 W/m² | - |
| 1777651542 | 20° C | 41% | 1017.7 hPa | 0 mm | - | 304 W/m² | - |
| 1777647942 | 20.56° C | 44% | 1017.6 hPa | 0 mm | - | 510 W/m² | - |
| 1777647645 | 20.56° C | 39% | 1017.7 hPa | 0 mm | - | 529 W/m² | - |
| 1777642842 | 21.67° C | 28% | 1017.7 hPa | 0 mm | - | 754 W/m² | - |
| 1777642543 | 21.67° C | 28% | 1017.8 hPa | 0 mm | - | 763 W/m² | - |
| 1777642242 | 21.67° C | 28% | 1017.9 hPa | 0 mm | - | 772 W/m² | - |
| 1777641645 | 21.11° C | 28% | 1018 hPa | 0 mm | - | 788 W/m² | - |
| 1777639843 | 21.11° C | 27% | 1018.1 hPa | 0 mm | - | 846 W/m² | - |
| 1777639542 | 21.11° C | 27% | 1018.2 hPa | 0 mm | - | 853 W/m² | - |
| 1777638042 | 20.56° C | 27% | 1018.3 hPa | 0 mm | - | 893 W/m² | - |
| 1777636842 | 20° C | 29% | 1018.6 hPa | 0 mm | - | 911 W/m² | - |
| 1777634742 | 20.56° C | 28% | 1018.8 hPa | 0 mm | - | 939 W/m² | - |
| 1777632342 | 19.44° C | 33% | 1019 hPa | 0 mm | - | 939 W/m² | - |
* Rain latest hour (hover to see other rain measurements)
** Current wind speed in m/s (hover to see current wind gust speed)